sensor_id;sensor_type;location;lat;lon;timestamp;P1;durP1;ratioP1;P2;durP2;ratioP2
22603;SDS011;11469;49.024;8.246;2023-07-31T00:00:57;4.45;;;1.88;;
22603;SDS011;11469;49.024;8.246;2023-07-31T00:03:23;8.15;;;2.05;;
22603;SDS011;11469;49.024;8.246;2023-07-31T00:05:48;6.35;;;1.63;;
22603;SDS011;11469;49.024;8.246;2023-07-31T00:08:13;4.82;;;1.63;;
22603;SDS011;11469;49.024;8.246;2023-07-31T00:10:39;7.47;;;1.38;;
22603;SDS011;11469;49.024;8.246;2023-07-31T00:13:04;6.53;;;1.85;;
22603;SDS011;11469;49.024;8.246;2023-07-31T00:15:29;15.10;;;1.63;;
22603;SDS011;11469;49.024;8.246;2023-07-31T00:17:55;7.35;;;1.63;;
22603;SDS011;11469;49.024;8.246;2023-07-31T00:20:20;9.15;;;2.00;;
22603;SDS011;11469;49.024;8.246;2023-07-31T00:22:46;6.55;;;1.60;;
22603;SDS011;11469;49.024;8.246;2023-07-31T00:25:11;2.92;;;1.42;;
22603;SDS011;11469;49.024;8.246;2023-07-31T00:27:37;6.95;;;1.60;;
22603;SDS011;11469;49.024;8.246;2023-07-31T00:30:02;7.13;;;2.08;;
22603;SDS011;11469;49.024;8.246;2023-07-31T00:32:28;4.57;;;1.65;;
22603;SDS011;11469;49.024;8.246;2023-07-31T00:34:53;10.98;;;2.15;;
22603;SDS011;11469;49.024;8.246;2023-07-31T00:37:19;7.45;;;1.88;;
22603;SDS011;11469;49.024;8.246;2023-07-31T00:39:44;4.72;;;1.70;;
22603;SDS011;11469;49.024;8.246;2023-07-31T00:42:09;6.28;;;1.85;;
22603;SDS011;11469;49.024;8.246;2023-07-31T00:44:35;5.38;;;1.50;;
22603;SDS011;11469;49.024;8.246;2023-07-31T00:47:00;4.28;;;1.70;;
22603;SDS011;11469;49.024;8.246;2023-07-31T00:49:26;5.35;;;1.73;;
22603;SDS011;11469;49.024;8.246;2023-07-31T00:51:52;5.70;;;1.63;;
22603;SDS011;11469;49.024;8.246;2023-07-31T00:54:18;10.63;;;2.20;;
22603;SDS011;11469;49.024;8.246;2023-07-31T00:56:45;7.80;;;1.90;;
22603;SDS011;11469;49.024;8.246;2023-07-31T00:59:13;6.93;;;1.80;;
22603;SDS011;11469;49.024;8.246;2023-07-31T01:01:38;3.97;;;1.50;;
22603;SDS011;11469;49.024;8.246;2023-07-31T01:04:05;9.05;;;2.05;;
22603;SDS011;11469;49.024;8.246;2023-07-31T01:12:02;13.75;;;2.78;;
22603;SDS011;11469;49.024;8.246;2023-07-31T01:14:29;9.52;;;2.17;;
22603;SDS011;11469;49.024;8.246;2023-07-31T01:16:55;5.97;;;1.70;;
22603;SDS011;11469;49.024;8.246;2023-07-31T01:19:21;5.95;;;1.80;;
22603;SDS011;11469;49.024;8.246;2023-07-31T01:27:14;9.45;;;2.38;;
22603;SDS011;11469;49.024;8.246;2023-07-31T01:29:49;7.82;;;2.00;;
22603;SDS011;11469;49.024;8.246;2023-07-31T01:32:23;7.13;;;1.70;;
22603;SDS011;11469;49.024;8.246;2023-07-31T01:34:50;14.27;;;2.55;;
22603;SDS011;11469;49.024;8.246;2023-07-31T01:37:17;10.18;;;2.03;;
22603;SDS011;11469;49.024;8.246;2023-07-31T01:39:42;9.07;;;2.08;;
22603;SDS011;11469;49.024;8.246;2023-07-31T01:42:08;8.35;;;1.95;;
22603;SDS011;11469;49.024;8.246;2023-07-31T01:44:33;6.47;;;2.10;;
22603;SDS011;11469;49.024;8.246;2023-07-31T01:46:58;5.30;;;1.92;;
22603;SDS011;11469;49.024;8.246;2023-07-31T01:49:25;8.32;;;2.28;;
22603;SDS011;11469;49.024;8.246;2023-07-31T01:51:50;6.45;;;2.00;;
22603;SDS011;11469;49.024;8.246;2023-07-31T01:54:16;13.23;;;2.63;;
22603;SDS011;11469;49.024;8.246;2023-07-31T01:56:41;6.88;;;2.53;;
22603;SDS011;11469;49.024;8.246;2023-07-31T01:59:07;6.45;;;2.20;;
22603;SDS011;11469;49.024;8.246;2023-07-31T02:01:32;5.47;;;1.83;;
22603;SDS011;11469;49.024;8.246;2023-07-31T02:03:57;6.38;;;2.13;;
22603;SDS011;11469;49.024;8.246;2023-07-31T02:06:23;7.57;;;2.13;;
22603;SDS011;11469;49.024;8.246;2023-07-31T02:08:48;12.32;;;2.10;;
22603;SDS011;11469;49.024;8.246;2023-07-31T02:11:14;7.50;;;2.47;;
22603;SDS011;11469;49.024;8.246;2023-07-31T02:13:39;4.40;;;2.08;;
22603;SDS011;11469;49.024;8.246;2023-07-31T02:16:05;10.70;;;2.00;;
22603;SDS011;11469;49.024;8.246;2023-07-31T02:18:30;7.18;;;1.90;;
22603;SDS011;11469;49.024;8.246;2023-07-31T02:20:56;6.95;;;2.03;;
22603;SDS011;11469;49.024;8.246;2023-07-31T02:23:21;8.77;;;2.20;;
22603;SDS011;11469;49.024;8.246;2023-07-31T02:25:47;7.82;;;2.00;;
22603;SDS011;11469;49.024;8.246;2023-07-31T02:28:12;10.60;;;2.13;;
22603;SDS011;11469;49.024;8.246;2023-07-31T02:30:38;6.45;;;2.28;;
22603;SDS011;11469;49.024;8.246;2023-07-31T02:33:04;10.68;;;2.13;;
22603;SDS011;11469;49.024;8.246;2023-07-31T02:35:29;9.27;;;2.00;;
22603;SDS011;11469;49.024;8.246;2023-07-31T02:37:55;7.10;;;2.40;;
22603;SDS011;11469;49.024;8.246;2023-07-31T02:40:20;7.00;;;1.75;;
22603;SDS011;11469;49.024;8.246;2023-07-31T02:42:46;9.75;;;2.08;;
22603;SDS011;11469;49.024;8.246;2023-07-31T02:45:11;5.80;;;2.03;;
22603;SDS011;11469;49.024;8.246;2023-07-31T02:47:37;4.90;;;2.03;;
22603;SDS011;11469;49.024;8.246;2023-07-31T02:50:02;9.30;;;2.00;;
22603;SDS011;11469;49.024;8.246;2023-07-31T02:52:28;10.05;;;2.00;;
22603;SDS011;11469;49.024;8.246;2023-07-31T02:54:54;7.43;;;2.05;;
22603;SDS011;11469;49.024;8.246;2023-07-31T02:57:19;7.65;;;2.28;;
22603;SDS011;11469;49.024;8.246;2023-07-31T02:59:45;5.22;;;2.30;;
22603;SDS011;11469;49.024;8.246;2023-07-31T03:02:10;8.90;;;2.20;;
22603;SDS011;11469;49.024;8.246;2023-07-31T03:04:37;6.05;;;2.20;;
22603;SDS011;11469;49.024;8.246;2023-07-31T03:07:02;4.90;;;1.95;;
22603;SDS011;11469;49.024;8.246;2023-07-31T03:09:28;7.75;;;2.35;;
22603;SDS011;11469;49.024;8.246;2023-07-31T03:11:53;6.63;;;2.08;;
22603;SDS011;11469;49.024;8.246;2023-07-31T03:14:18;5.10;;;1.60;;
22603;SDS011;11469;49.024;8.246;2023-07-31T03:16:44;8.23;;;2.20;;
22603;SDS011;11469;49.024;8.246;2023-07-31T03:19:09;12.52;;;3.25;;
22603;SDS011;11469;49.024;8.246;2023-07-31T03:21:34;5.47;;;2.08;;
22603;SDS011;11469;49.024;8.246;2023-07-31T03:24:00;11.32;;;1.85;;
22603;SDS011;11469;49.024;8.246;2023-07-31T03:26:25;5.32;;;1.92;;
22603;SDS011;11469;49.024;8.246;2023-07-31T03:28:51;5.70;;;1.85;;
22603;SDS011;11469;49.024;8.246;2023-07-31T03:31:16;7.30;;;2.25;;
22603;SDS011;11469;49.024;8.246;2023-07-31T03:33:41;5.00;;;2.00;;
22603;SDS011;11469;49.024;8.246;2023-07-31T03:36:07;17.23;;;2.17;;
22603;SDS011;11469;49.024;8.246;2023-07-31T03:38:33;9.45;;;2.10;;
22603;SDS011;11469;49.024;8.246;2023-07-31T03:40:59;12.55;;;1.95;;
22603;SDS011;11469;49.024;8.246;2023-07-31T03:43:24;4.95;;;1.70;;
22603;SDS011;11469;49.024;8.246;2023-07-31T03:45:50;8.15;;;2.70;;
22603;SDS011;11469;49.024;8.246;2023-07-31T03:48:16;6.05;;;2.13;;
22603;SDS011;11469;49.024;8.246;2023-07-31T03:50:41;4.35;;;1.90;;
22603;SDS011;11469;49.024;8.246;2023-07-31T03:53:07;5.75;;;2.00;;
22603;SDS011;11469;49.024;8.246;2023-07-31T03:55:32;4.47;;;1.42;;
22603;SDS011;11469;49.024;8.246;2023-07-31T03:57:57;10.60;;;2.25;;
22603;SDS011;11469;49.024;8.246;2023-07-31T04:00:23;9.05;;;2.15;;
22603;SDS011;11469;49.024;8.246;2023-07-31T04:02:48;4.18;;;1.95;;
22603;SDS011;11469;49.024;8.246;2023-07-31T04:05:14;11.35;;;2.33;;
22603;SDS011;11469;49.024;8.246;2023-07-31T04:07:39;5.82;;;2.08;;
22603;SDS011;11469;49.024;8.246;2023-07-31T04:10:04;6.55;;;1.85;;
22603;SDS011;11469;49.024;8.246;2023-07-31T04:12:30;5.65;;;2.00;;
22603;SDS011;11469;49.024;8.246;2023-07-31T04:14:55;12.07;;;2.08;;
22603;SDS011;11469;49.024;8.246;2023-07-31T04:17:21;5.68;;;2.10;;
22603;SDS011;11469;49.024;8.246;2023-07-31T04:19:46;13.38;;;1.83;;
22603;SDS011;11469;49.024;8.246;2023-07-31T04:22:11;10.13;;;2.47;;
22603;SDS011;11469;49.024;8.246;2023-07-31T04:24:37;7.93;;;2.03;;
22603;SDS011;11469;49.024;8.246;2023-07-31T04:27:02;6.00;;;2.53;;
22603;SDS011;11469;49.024;8.246;2023-07-31T04:29:28;8.60;;;2.47;;
22603;SDS011;11469;49.024;8.246;2023-07-31T04:31:53;6.13;;;2.20;;
22603;SDS011;11469;49.024;8.246;2023-07-31T04:34:19;7.05;;;1.90;;
22603;SDS011;11469;49.024;8.246;2023-07-31T04:36:44;5.93;;;2.42;;
22603;SDS011;11469;49.024;8.246;2023-07-31T04:39:09;11.10;;;2.50;;
22603;SDS011;11469;49.024;8.246;2023-07-31T04:41:35;7.47;;;2.00;;
22603;SDS011;11469;49.024;8.246;2023-07-31T04:44:00;11.60;;;2.35;;
22603;SDS011;11469;49.024;8.246;2023-07-31T04:46:26;8.45;;;2.10;;
22603;SDS011;11469;49.024;8.246;2023-07-31T04:48:51;6.15;;;2.03;;
22603;SDS011;11469;49.024;8.246;2023-07-31T04:51:17;4.00;;;1.70;;
22603;SDS011;11469;49.024;8.246;2023-07-31T04:53:42;9.15;;;2.15;;
22603;SDS011;11469;49.024;8.246;2023-07-31T04:56:07;7.85;;;2.00;;
22603;SDS011;11469;49.024;8.246;2023-07-31T04:58:33;4.05;;;1.77;;
22603;SDS011;11469;49.024;8.246;2023-07-31T05:00:58;8.00;;;2.08;;
22603;SDS011;11469;49.024;8.246;2023-07-31T05:03:23;3.53;;;1.70;;
22603;SDS011;11469;49.024;8.246;2023-07-31T05:05:49;11.57;;;2.20;;
22603;SDS011;11469;49.024;8.246;2023-07-31T05:08:15;7.00;;;1.77;;
22603;SDS011;11469;49.024;8.246;2023-07-31T05:10:42;6.10;;;1.85;;
22603;SDS011;11469;49.024;8.246;2023-07-31T05:13:08;6.30;;;2.03;;
22603;SDS011;11469;49.024;8.246;2023-07-31T05:15:33;11.27;;;2.50;;
22603;SDS011;11469;49.024;8.246;2023-07-31T05:17:59;5.47;;;1.77;;
22603;SDS011;11469;49.024;8.246;2023-07-31T05:20:24;8.98;;;2.30;;
22603;SDS011;11469;49.024;8.246;2023-07-31T05:22:50;10.10;;;2.85;;
22603;SDS011;11469;49.024;8.246;2023-07-31T05:25:16;8.48;;;2.47;;
22603;SDS011;11469;49.024;8.246;2023-07-31T05:27:41;8.75;;;2.30;;
22603;SDS011;11469;49.024;8.246;2023-07-31T05:30:07;7.35;;;2.05;;
22603;SDS011;11469;49.024;8.246;2023-07-31T05:32:33;10.05;;;2.20;;
22603;SDS011;11469;49.024;8.246;2023-07-31T05:34:58;9.88;;;2.47;;
22603;SDS011;11469;49.024;8.246;2023-07-31T05:37:24;10.43;;;2.60;;
22603;SDS011;11469;49.024;8.246;2023-07-31T05:39:49;12.68;;;2.05;;
22603;SDS011;11469;49.024;8.246;2023-07-31T05:42:14;9.63;;;2.35;;
22603;SDS011;11469;49.024;8.246;2023-07-31T05:44:40;13.25;;;2.55;;
22603;SDS011;11469;49.024;8.246;2023-07-31T05:47:05;7.10;;;2.22;;
22603;SDS011;11469;49.024;8.246;2023-07-31T05:49:31;9.95;;;1.80;;
22603;SDS011;11469;49.024;8.246;2023-07-31T05:51:56;5.35;;;2.03;;
22603;SDS011;11469;49.024;8.246;2023-07-31T05:54:22;6.28;;;1.70;;
22603;SDS011;11469;49.024;8.246;2023-07-31T05:56:47;5.78;;;2.33;;
22603;SDS011;11469;49.024;8.246;2023-07-31T05:59:13;5.40;;;1.77;;
22603;SDS011;11469;49.024;8.246;2023-07-31T06:01:38;6.15;;;2.03;;
22603;SDS011;11469;49.024;8.246;2023-07-31T06:04:04;7.97;;;2.05;;
22603;SDS011;11469;49.024;8.246;2023-07-31T06:06:29;5.28;;;2.25;;
22603;SDS011;11469;49.024;8.246;2023-07-31T06:08:55;6.95;;;2.20;;
22603;SDS011;11469;49.024;8.246;2023-07-31T06:11:20;9.23;;;2.17;;
22603;SDS011;11469;49.024;8.246;2023-07-31T06:13:46;8.13;;;2.53;;
22603;SDS011;11469;49.024;8.246;2023-07-31T06:16:13;5.05;;;1.98;;
22603;SDS011;11469;49.024;8.246;2023-07-31T06:18:38;10.40;;;2.20;;
22603;SDS011;11469;49.024;8.246;2023-07-31T06:21:04;6.32;;;1.92;;
22603;SDS011;11469;49.024;8.246;2023-07-31T06:23:30;11.93;;;2.28;;
22603;SDS011;11469;49.024;8.246;2023-07-31T06:25:55;10.75;;;2.17;;
22603;SDS011;11469;49.024;8.246;2023-07-31T06:28:20;5.88;;;1.80;;
22603;SDS011;11469;49.024;8.246;2023-07-31T06:30:46;8.02;;;2.33;;
22603;SDS011;11469;49.024;8.246;2023-07-31T06:33:12;6.40;;;1.90;;
22603;SDS011;11469;49.024;8.246;2023-07-31T06:35:37;6.95;;;2.00;;
22603;SDS011;11469;49.024;8.246;2023-07-31T06:38:03;4.55;;;2.08;;
22603;SDS011;11469;49.024;8.246;2023-07-31T06:40:28;14.70;;;2.33;;
22603;SDS011;11469;49.024;8.246;2023-07-31T06:42:54;9.38;;;2.03;;
22603;SDS011;11469;49.024;8.246;2023-07-31T06:45:20;7.82;;;2.25;;
22603;SDS011;11469;49.024;8.246;2023-07-31T06:47:46;6.78;;;2.00;;
22603;SDS011;11469;49.024;8.246;2023-07-31T06:50:12;6.28;;;2.10;;
22603;SDS011;11469;49.024;8.246;2023-07-31T06:52:37;13.77;;;2.38;;
22603;SDS011;11469;49.024;8.246;2023-07-31T06:55:19;7.65;;;2.20;;
22603;SDS011;11469;49.024;8.246;2023-07-31T06:57:46;7.95;;;2.42;;
22603;SDS011;11469;49.024;8.246;2023-07-31T07:00:12;12.63;;;2.80;;
22603;SDS011;11469;49.024;8.246;2023-07-31T07:02:38;7.90;;;2.42;;
22603;SDS011;11469;49.024;8.246;2023-07-31T07:05:04;5.85;;;2.00;;
22603;SDS011;11469;49.024;8.246;2023-07-31T07:07:29;9.23;;;2.58;;
22603;SDS011;11469;49.024;8.246;2023-07-31T07:09:55;7.40;;;1.80;;
22603;SDS011;11469;49.024;8.246;2023-07-31T07:12:20;9.13;;;1.75;;
22603;SDS011;11469;49.024;8.246;2023-07-31T07:14:45;5.15;;;2.10;;
22603;SDS011;11469;49.024;8.246;2023-07-31T07:17:12;5.53;;;2.00;;
22603;SDS011;11469;49.024;8.246;2023-07-31T07:19:40;11.57;;;2.75;;
22603;SDS011;11469;49.024;8.246;2023-07-31T07:22:05;15.43;;;2.15;;
22603;SDS011;11469;49.024;8.246;2023-07-31T07:24:31;7.85;;;2.17;;
22603;SDS011;11469;49.024;8.246;2023-07-31T07:26:56;9.68;;;1.92;;
22603;SDS011;11469;49.024;8.246;2023-07-31T07:29:21;11.32;;;2.47;;
22603;SDS011;11469;49.024;8.246;2023-07-31T07:31:47;6.93;;;2.45;;
22603;SDS011;11469;49.024;8.246;2023-07-31T07:34:12;9.82;;;2.50;;
22603;SDS011;11469;49.024;8.246;2023-07-31T07:36:38;5.57;;;2.10;;
22603;SDS011;11469;49.024;8.246;2023-07-31T07:39:03;6.60;;;2.10;;
22603;SDS011;11469;49.024;8.246;2023-07-31T07:41:29;7.40;;;2.22;;
22603;SDS011;11469;49.024;8.246;2023-07-31T07:43:54;7.00;;;1.95;;
22603;SDS011;11469;49.024;8.246;2023-07-31T07:46:19;6.43;;;2.03;;
22603;SDS011;11469;49.024;8.246;2023-07-31T07:48:45;6.20;;;1.92;;
22603;SDS011;11469;49.024;8.246;2023-07-31T07:51:10;6.22;;;1.95;;
22603;SDS011;11469;49.024;8.246;2023-07-31T07:53:35;7.50;;;2.05;;
22603;SDS011;11469;49.024;8.246;2023-07-31T07:56:01;6.57;;;2.15;;
22603;SDS011;11469;49.024;8.246;2023-07-31T07:58:26;6.43;;;2.05;;
22603;SDS011;11469;49.024;8.246;2023-07-31T08:00:51;7.50;;;2.13;;
22603;SDS011;11469;49.024;8.246;2023-07-31T08:03:17;9.02;;;2.45;;
22603;SDS011;11469;49.024;8.246;2023-07-31T08:05:43;7.97;;;2.50;;
22603;SDS011;11469;49.024;8.246;2023-07-31T08:08:13;12.18;;;2.05;;
22603;SDS011;11469;49.024;8.246;2023-07-31T08:10:40;7.20;;;2.13;;
22603;SDS011;11469;49.024;8.246;2023-07-31T08:13:05;11.75;;;2.20;;
22603;SDS011;11469;49.024;8.246;2023-07-31T08:15:30;12.80;;;2.92;;
22603;SDS011;11469;49.024;8.246;2023-07-31T08:17:56;6.13;;;1.85;;
22603;SDS011;11469;49.024;8.246;2023-07-31T08:20:21;9.32;;;2.38;;
22603;SDS011;11469;49.024;8.246;2023-07-31T08:22:46;10.85;;;2.42;;
22603;SDS011;11469;49.024;8.246;2023-07-31T08:25:12;7.45;;;2.67;;
22603;SDS011;11469;49.024;8.246;2023-07-31T08:27:37;7.45;;;2.33;;
22603;SDS011;11469;49.024;8.246;2023-07-31T08:30:03;10.63;;;2.33;;
22603;SDS011;11469;49.024;8.246;2023-07-31T08:32:28;6.57;;;2.10;;
22603;SDS011;11469;49.024;8.246;2023-07-31T08:34:54;7.70;;;2.20;;
22603;SDS011;11469;49.024;8.246;2023-07-31T08:37:19;4.43;;;1.58;;
22603;SDS011;11469;49.024;8.246;2023-07-31T08:39:44;7.50;;;2.35;;
22603;SDS011;11469;49.024;8.246;2023-07-31T08:42:10;8.90;;;2.40;;
22603;SDS011;11469;49.024;8.246;2023-07-31T08:44:35;18.90;;;2.75;;
22603;SDS011;11469;49.024;8.246;2023-07-31T08:47:02;9.90;;;2.42;;
22603;SDS011;11469;49.024;8.246;2023-07-31T08:49:28;10.10;;;2.80;;
22603;SDS011;11469;49.024;8.246;2023-07-31T08:51:55;8.52;;;2.53;;
22603;SDS011;11469;49.024;8.246;2023-07-31T08:54:23;16.60;;;2.80;;
22603;SDS011;11469;49.024;8.246;2023-07-31T08:56:48;10.48;;;2.42;;
22603;SDS011;11469;49.024;8.246;2023-07-31T08:59:15;5.78;;;2.47;;
22603;SDS011;11469;49.024;8.246;2023-07-31T09:01:44;9.85;;;2.17;;
22603;SDS011;11469;49.024;8.246;2023-07-31T09:04:14;6.85;;;2.17;;
22603;SDS011;11469;49.024;8.246;2023-07-31T09:06:43;9.25;;;2.88;;
22603;SDS011;11469;49.024;8.246;2023-07-31T09:09:09;5.07;;;2.08;;
22603;SDS011;11469;49.024;8.246;2023-07-31T09:11:35;8.25;;;2.90;;
22603;SDS011;11469;49.024;8.246;2023-07-31T09:14:00;13.02;;;2.60;;
22603;SDS011;11469;49.024;8.246;2023-07-31T09:16:33;7.55;;;2.30;;
22603;SDS011;11469;49.024;8.246;2023-07-31T09:18:59;8.90;;;2.30;;
22603;SDS011;11469;49.024;8.246;2023-07-31T09:21:27;7.47;;;2.47;;
22603;SDS011;11469;49.024;8.246;2023-07-31T09:23:53;8.57;;;2.55;;
22603;SDS011;11469;49.024;8.246;2023-07-31T09:26:31;6.32;;;2.70;;
22603;SDS011;11469;49.024;8.246;2023-07-31T09:29:00;6.72;;;2.17;;
22603;SDS011;11469;49.024;8.246;2023-07-31T09:31:32;10.27;;;3.10;;
22603;SDS011;11469;49.024;8.246;2023-07-31T09:34:04;15.63;;;2.60;;
22603;SDS011;11469;49.024;8.246;2023-07-31T09:36:29;7.55;;;2.42;;
22603;SDS011;11469;49.024;8.246;2023-07-31T09:39:02;17.45;;;3.05;;
22603;SDS011;11469;49.024;8.246;2023-07-31T09:41:29;6.72;;;2.42;;
22603;SDS011;11469;49.024;8.246;2023-07-31T09:43:55;7.53;;;2.70;;
22603;SDS011;11469;49.024;8.246;2023-07-31T09:46:21;11.85;;;2.72;;
22603;SDS011;11469;49.024;8.246;2023-07-31T09:48:47;10.90;;;2.60;;
22603;SDS011;11469;49.024;8.246;2023-07-31T09:51:12;11.82;;;2.95;;
22603;SDS011;11469;49.024;8.246;2023-07-31T09:53:38;11.13;;;2.35;;
22603;SDS011;11469;49.024;8.246;2023-07-31T09:56:03;10.55;;;3.15;;
22603;SDS011;11469;49.024;8.246;2023-07-31T09:58:30;8.20;;;2.38;;
22603;SDS011;11469;49.024;8.246;2023-07-31T10:00:59;10.93;;;2.38;;
22603;SDS011;11469;49.024;8.246;2023-07-31T10:03:26;9.20;;;2.75;;
22603;SDS011;11469;49.024;8.246;2023-07-31T10:05:55;14.70;;;2.88;;
22603;SDS011;11469;49.024;8.246;2023-07-31T10:08:23;10.90;;;2.67;;
22603;SDS011;11469;49.024;8.246;2023-07-31T10:10:54;6.90;;;2.60;;
22603;SDS011;11469;49.024;8.246;2023-07-31T10:13:23;11.80;;;2.47;;
22603;SDS011;11469;49.024;8.246;2023-07-31T10:15:49;7.78;;;2.53;;
22603;SDS011;11469;49.024;8.246;2023-07-31T10:18:15;7.22;;;2.53;;
22603;SDS011;11469;49.024;8.246;2023-07-31T10:20:43;11.95;;;2.60;;
22603;SDS011;11469;49.024;8.246;2023-07-31T10:23:09;9.35;;;2.60;;
22603;SDS011;11469;49.024;8.246;2023-07-31T10:25:35;8.52;;;2.78;;
22603;SDS011;11469;49.024;8.246;2023-07-31T10:28:01;11.45;;;3.08;;
22603;SDS011;11469;49.024;8.246;2023-07-31T10:30:30;11.88;;;3.17;;
22603;SDS011;11469;49.024;8.246;2023-07-31T10:32:58;7.85;;;2.45;;
22603;SDS011;11469;49.024;8.246;2023-07-31T10:35:24;9.30;;;3.55;;
22603;SDS011;11469;49.024;8.246;2023-07-31T10:37:50;10.07;;;2.95;;
22603;SDS011;11469;49.024;8.246;2023-07-31T10:40:23;6.63;;;2.75;;
22603;SDS011;11469;49.024;8.246;2023-07-31T10:42:53;8.50;;;2.83;;
22603;SDS011;11469;49.024;8.246;2023-07-31T10:45:31;8.82;;;3.22;;
22603;SDS011;11469;49.024;8.246;2023-07-31T10:50:29;5.88;;;2.63;;
22603;SDS011;11469;49.024;8.246;2023-07-31T10:52:58;6.78;;;2.70;;
22603;SDS011;11469;49.024;8.246;2023-07-31T10:57:57;11.73;;;2.63;;
22603;SDS011;11469;49.024;8.246;2023-07-31T11:00:30;8.18;;;2.88;;
22603;SDS011;11469;49.024;8.246;2023-07-31T11:03:08;10.77;;;3.25;;
22603;SDS011;11469;49.024;8.246;2023-07-31T11:08:27;12.95;;;3.03;;
22603;SDS011;11469;49.024;8.246;2023-07-31T11:13:28;8.77;;;2.55;;
22603;SDS011;11469;49.024;8.246;2023-07-31T11:15:54;11.15;;;3.33;;
22603;SDS011;11469;49.024;8.246;2023-07-31T11:18:20;11.25;;;2.85;;
22603;SDS011;11469;49.024;8.246;2023-07-31T11:20:45;10.52;;;2.65;;
22603;SDS011;11469;49.024;8.246;2023-07-31T11:23:11;7.85;;;2.88;;
22603;SDS011;11469;49.024;8.246;2023-07-31T11:25:38;13.05;;;3.30;;
22603;SDS011;11469;49.024;8.246;2023-07-31T11:28:08;11.15;;;3.03;;
22603;SDS011;11469;49.024;8.246;2023-07-31T11:30:41;9.70;;;2.97;;
22603;SDS011;11469;49.024;8.246;2023-07-31T11:33:09;7.95;;;2.58;;
22603;SDS011;11469;49.024;8.246;2023-07-31T11:35:36;13.43;;;2.80;;
22603;SDS011;11469;49.024;8.246;2023-07-31T11:38:07;8.07;;;3.33;;
22603;SDS011;11469;49.024;8.246;2023-07-31T11:40:40;8.35;;;2.97;;
22603;SDS011;11469;49.024;8.246;2023-07-31T11:43:09;12.38;;;3.17;;
22603;SDS011;11469;49.024;8.246;2023-07-31T11:45:41;10.02;;;2.75;;
22603;SDS011;11469;49.024;8.246;2023-07-31T11:48:06;7.22;;;2.30;;
22603;SDS011;11469;49.024;8.246;2023-07-31T11:50:33;8.10;;;2.85;;
22603;SDS011;11469;49.024;8.246;2023-07-31T11:53:01;6.85;;;2.47;;
22603;SDS011;11469;49.024;8.246;2023-07-31T11:55:32;12.10;;;2.83;;
22603;SDS011;11469;49.024;8.246;2023-07-31T11:57:58;9.20;;;2.70;;
22603;SDS011;11469;49.024;8.246;2023-07-31T12:00:24;9.90;;;2.70;;
22603;SDS011;11469;49.024;8.246;2023-07-31T12:02:51;6.80;;;2.65;;
22603;SDS011;11469;49.024;8.246;2023-07-31T12:05:17;10.55;;;3.00;;
22603;SDS011;11469;49.024;8.246;2023-07-31T12:07:47;15.55;;;3.20;;
22603;SDS011;11469;49.024;8.246;2023-07-31T12:10:26;6.93;;;2.85;;
22603;SDS011;11469;49.024;8.246;2023-07-31T12:12:56;7.50;;;2.35;;
22603;SDS011;11469;49.024;8.246;2023-07-31T12:15:39;12.00;;;2.88;;
22603;SDS011;11469;49.024;8.246;2023-07-31T12:18:07;10.52;;;2.63;;
22603;SDS011;11469;49.024;8.246;2023-07-31T12:20:43;8.27;;;2.55;;
22603;SDS011;11469;49.024;8.246;2023-07-31T12:23:17;6.78;;;2.67;;
22603;SDS011;11469;49.024;8.246;2023-07-31T12:25:44;8.40;;;2.60;;
22603;SDS011;11469;49.024;8.246;2023-07-31T12:28:10;7.32;;;2.83;;
22603;SDS011;11469;49.024;8.246;2023-07-31T12:30:39;5.13;;;2.20;;
22603;SDS011;11469;49.024;8.246;2023-07-31T12:33:14;9.10;;;2.90;;
22603;SDS011;11469;49.024;8.246;2023-07-31T12:35:41;8.90;;;2.45;;
22603;SDS011;11469;49.024;8.246;2023-07-31T12:38:08;13.15;;;2.90;;
22603;SDS011;11469;49.024;8.246;2023-07-31T12:40:35;7.63;;;2.80;;
22603;SDS011;11469;49.024;8.246;2023-07-31T12:43:02;6.82;;;2.13;;
22603;SDS011;11469;49.024;8.246;2023-07-31T12:45:31;7.43;;;2.72;;
22603;SDS011;11469;49.024;8.246;2023-07-31T12:47:57;11.00;;;2.50;;
22603;SDS011;11469;49.024;8.246;2023-07-31T12:50:23;10.02;;;2.40;;
22603;SDS011;11469;49.024;8.246;2023-07-31T12:52:49;7.43;;;2.63;;
22603;SDS011;11469;49.024;8.246;2023-07-31T12:55:14;8.82;;;2.47;;
22603;SDS011;11469;49.024;8.246;2023-07-31T12:57:40;6.00;;;2.47;;
22603;SDS011;11469;49.024;8.246;2023-07-31T13:00:07;8.70;;;2.65;;
22603;SDS011;11469;49.024;8.246;2023-07-31T13:02:33;8.00;;;2.38;;
22603;SDS011;11469;49.024;8.246;2023-07-31T13:04:58;7.53;;;2.58;;
22603;SDS011;11469;49.024;8.246;2023-07-31T13:07:23;8.60;;;2.25;;
22603;SDS011;11469;49.024;8.246;2023-07-31T13:09:50;7.30;;;2.78;;
22603;SDS011;11469;49.024;8.246;2023-07-31T13:12:15;9.00;;;2.85;;
22603;SDS011;11469;49.024;8.246;2023-07-31T13:14:41;9.35;;;2.72;;
22603;SDS011;11469;49.024;8.246;2023-07-31T13:17:06;9.40;;;3.15;;
22603;SDS011;11469;49.024;8.246;2023-07-31T13:19:32;11.90;;;2.95;;
22603;SDS011;11469;49.024;8.246;2023-07-31T13:21:57;10.50;;;2.78;;
22603;SDS011;11469;49.024;8.246;2023-07-31T13:24:23;11.43;;;2.60;;
22603;SDS011;11469;49.024;8.246;2023-07-31T13:26:48;5.95;;;2.55;;
22603;SDS011;11469;49.024;8.246;2023-07-31T13:29:14;8.20;;;3.00;;
22603;SDS011;11469;49.024;8.246;2023-07-31T13:31:39;8.43;;;2.38;;
22603;SDS011;11469;49.024;8.246;2023-07-31T13:34:04;11.85;;;2.35;;
22603;SDS011;11469;49.024;8.246;2023-07-31T13:36:30;10.27;;;2.85;;
22603;SDS011;11469;49.024;8.246;2023-07-31T13:38:55;9.73;;;2.92;;
22603;SDS011;11469;49.024;8.246;2023-07-31T13:41:20;8.30;;;2.92;;
22603;SDS011;11469;49.024;8.246;2023-07-31T13:43:47;10.00;;;2.60;;
22603;SDS011;11469;49.024;8.246;2023-07-31T13:46:12;15.55;;;2.80;;
22603;SDS011;11469;49.024;8.246;2023-07-31T13:48:38;7.28;;;2.55;;
22603;SDS011;11469;49.024;8.246;2023-07-31T13:51:03;7.25;;;2.75;;
22603;SDS011;11469;49.024;8.246;2023-07-31T13:53:29;9.05;;;2.67;;
22603;SDS011;11469;49.024;8.246;2023-07-31T13:55:54;11.80;;;4.15;;
22603;SDS011;11469;49.024;8.246;2023-07-31T13:58:20;14.25;;;3.42;;
22603;SDS011;11469;49.024;8.246;2023-07-31T14:00:45;10.05;;;2.92;;
22603;SDS011;11469;49.024;8.246;2023-07-31T14:03:10;6.28;;;2.63;;
22603;SDS011;11469;49.024;8.246;2023-07-31T14:05:36;5.15;;;2.58;;
22603;SDS011;11469;49.024;8.246;2023-07-31T14:08:01;6.43;;;2.45;;
22603;SDS011;11469;49.024;8.246;2023-07-31T14:10:27;10.05;;;2.90;;
22603;SDS011;11469;49.024;8.246;2023-07-31T14:12:52;7.28;;;2.88;;
22603;SDS011;11469;49.024;8.246;2023-07-31T14:15:17;7.22;;;2.45;;
22603;SDS011;11469;49.024;8.246;2023-07-31T14:17:43;12.55;;;2.97;;
22603;SDS011;11469;49.024;8.246;2023-07-31T14:20:08;9.10;;;2.75;;
22603;SDS011;11469;49.024;8.246;2023-07-31T14:22:34;9.25;;;2.75;;
22603;SDS011;11469;49.024;8.246;2023-07-31T14:25:00;7.53;;;2.47;;
22603;SDS011;11469;49.024;8.246;2023-07-31T14:27:26;7.45;;;2.45;;
22603;SDS011;11469;49.024;8.246;2023-07-31T14:29:52;8.23;;;2.75;;
22603;SDS011;11469;49.024;8.246;2023-07-31T14:32:17;11.75;;;2.95;;
22603;SDS011;11469;49.024;8.246;2023-07-31T14:34:42;10.88;;;3.47;;
22603;SDS011;11469;49.024;8.246;2023-07-31T14:37:08;7.20;;;4.18;;
22603;SDS011;11469;49.024;8.246;2023-07-31T14:39:33;10.52;;;4.35;;
22603;SDS011;11469;49.024;8.246;2023-07-31T14:41:58;9.50;;;2.97;;
22603;SDS011;11469;49.024;8.246;2023-07-31T14:44:24;8.43;;;2.58;;
22603;SDS011;11469;49.024;8.246;2023-07-31T14:46:49;4.95;;;2.65;;
22603;SDS011;11469;49.024;8.246;2023-07-31T14:49:14;8.07;;;2.55;;
22603;SDS011;11469;49.024;8.246;2023-07-31T14:51:40;8.60;;;3.00;;
22603;SDS011;11469;49.024;8.246;2023-07-31T14:54:05;6.25;;;2.75;;
22603;SDS011;11469;49.024;8.246;2023-07-31T14:56:31;13.13;;;2.72;;
22603;SDS011;11469;49.024;8.246;2023-07-31T14:58:56;7.88;;;2.90;;